Time;durP1;ratioP1;P1;durP2;ratioP2;P2;SDS_P1;SDS_P2;PMS_P1;PMS_P2;Temp;Humidity;BMP_temperature;BMP_pressure;BME280_temperature;BME280_humidity;BME280_pressure;Samples;Min_cycle;Max_cycle;Signal;HPM_P1;HPM_P2
2024/01/22 00:01:41;;;;;;;9.10;3.20;;;6.50;99.90;;;;;;4968316;28;20035;-82
2024/01/22 00:04:07;;;;;;;8.27;3.10;;;6.60;99.90;;;;;;4967523;28;20104;-82
2024/01/22 00:06:37;;;;;;;9.60;3.45;;;6.60;99.90;;;;;;4984124;28;20052;-82
2024/01/22 00:09:03;;;;;;;8.95;3.20;;;7.10;99.90;;;;;;4937761;28;20118;-82
2024/01/22 00:11:29;;;;;;;8.75;3.30;;;6.60;99.90;;;;;;4985658;28;20157;-84
2024/01/22 00:13:56;;;;;;;9.55;3.22;;;6.60;99.90;;;;;;4970081;28;20068;-82
2024/01/22 00:16:22;;;;;;;9.35;3.33;;;6.60;99.90;;;;;;4948867;28;20043;-83
2024/01/22 00:18:48;;;;;;;8.10;3.15;;;6.60;99.90;;;;;;5006366;28;20137;-83
2024/01/22 00:21:14;;;;;;;10.07;3.47;;;6.60;99.90;;;;;;4980728;28;20035;-82
2024/01/22 00:23:39;;;;;;;10.60;3.10;;;6.70;99.90;;;;;;4966529;28;20097;-83
2024/01/22 00:26:05;;;;;;;9.48;3.40;;;6.70;99.90;;;;;;4967451;28;20074;-83
2024/01/22 00:28:31;;;;;;;8.52;3.00;;;6.80;99.90;;;;;;4981604;28;20461;-84
2024/01/22 00:30:57;;;;;;;7.35;3.10;;;6.80;99.90;;;;;;4894644;28;20050;-83
2024/01/22 00:33:22;;;;;;;9.25;3.13;;;6.70;99.90;;;;;;4967295;28;20073;-83
2024/01/22 00:35:48;;;;;;;9.93;3.30;;;7.20;99.90;;;;;;4933672;28;20730;-84
2024/01/22 00:38:14;;;;;;;7.75;3.25;;;6.80;99.90;;;;;;4963741;28;20047;-83
2024/01/22 00:40:39;;;;;;;8.25;3.10;;;6.90;99.90;;;;;;4931558;28;20039;-82
2024/01/22 00:43:05;;;;;;;12.85;4.63;;;6.80;99.90;;;;;;4950246;28;20070;-82
2024/01/22 00:45:31;;;;;;;9.13;3.25;;;6.90;99.90;;;;;;4997813;28;20045;-83
2024/01/22 00:47:56;;;;;;;8.98;3.15;;;6.90;99.90;;;;;;4934181;28;21919;-82
2024/01/22 00:50:22;;;;;;;9.20;3.40;;;6.90;99.90;;;;;;4962364;28;20100;-83
2024/01/22 00:52:48;;;;;;;8.95;3.33;;;7.00;99.90;;;;;;4982745;28;20035;-82
2024/01/22 00:55:13;;;;;;;7.47;3.25;;;7.00;99.90;;;;;;4966226;28;20066;-82
2024/01/22 00:57:39;;;;;;;7.57;3.08;;;7.00;99.90;;;;;;4979673;28;20875;-82
2024/01/22 01:00:09;;;;;;;7.70;2.90;;;7.00;99.90;;;;;;4965074;28;20043;-82
2024/01/22 01:02:35;;;;;;;8.38;3.00;;;7.10;99.90;;;;;;4965772;28;20046;-83
2024/01/22 01:05:01;;;;;;;7.88;3.22;;;7.10;99.90;;;;;;4965581;28;20039;-82
2024/01/22 01:07:26;;;;;;;7.85;3.00;;;7.10;99.90;;;;;;4981912;28;20161;-83
2024/01/22 01:09:52;;;;;;;8.98;3.40;;;7.20;99.90;;;;;;4926397;28;20130;-83
2024/01/22 01:12:18;;;;;;;8.38;3.22;;;7.10;99.90;;;;;;4948355;28;20042;-83
2024/01/22 01:14:43;;;;;;;8.82;2.83;;;7.10;99.90;;;;;;4965960;28;20110;-82
2024/01/22 01:17:09;;;;;;;7.97;2.92;;;7.10;99.90;;;;;;4917066;28;20460;-83
2024/01/22 01:19:35;;;;;;;9.52;3.13;;;7.10;99.90;;;;;;4979849;28;20057;-82
2024/01/22 01:22:01;;;;;;;9.52;3.42;;;7.20;99.90;;;;;;4960954;28;20043;-83
2024/01/22 01:24:27;;;;;;;9.40;3.15;;;7.20;99.90;;;;;;4947383;28;20109;-83
2024/01/22 01:26:53;;;;;;;8.20;2.92;;;7.20;99.90;;;;;;4965450;28;20047;-83
2024/01/22 01:29:18;;;;;;;7.13;2.70;;;7.20;99.90;;;;;;4932119;28;20421;-83
2024/01/22 01:31:44;;;;;;;8.40;3.28;;;7.30;99.90;;;;;;4933371;28;20066;-82
2024/01/22 01:34:10;;;;;;;9.30;2.90;;;7.20;99.90;;;;;;4964965;28;20045;-82
2024/01/22 01:36:36;;;;;;;11.20;3.35;;;7.30;99.90;;;;;;4933777;28;20039;-83
2024/01/22 01:39:02;;;;;;;8.23;2.85;;;7.30;99.90;;;;;;4934229;28;20089;-84
2024/01/22 01:41:28;;;;;;;9.10;3.00;;;7.30;99.90;;;;;;4968825;28;20135;-82
2024/01/22 01:43:53;;;;;;;7.78;2.72;;;7.30;99.90;;;;;;4985149;28;20126;-83
2024/01/22 01:46:19;;;;;;;7.45;2.88;;;7.40;99.90;;;;;;4946271;28;20039;-82
2024/01/22 01:48:45;;;;;;;9.48;3.03;;;7.40;99.90;;;;;;4982227;28;20030;-83
2024/01/22 01:51:11;;;;;;;8.57;3.10;;;7.40;99.90;;;;;;4985770;28;20031;-83
2024/01/22 01:53:37;;;;;;;8.98;2.95;;;7.50;99.90;;;;;;4965183;28;20117;-82
2024/01/22 01:56:04;;;;;;;7.07;2.72;;;7.60;99.90;;;;;;4956872;28;20511;-84
2024/01/22 01:58:29;;;;;;;7.75;2.70;;;7.60;99.90;;;;;;4984277;28;20125;-82
2024/01/22 02:00:57;;;;;;;7.40;2.60;;;7.60;99.90;;;;;;4982563;28;20153;-83
2024/01/22 02:03:23;;;;;;;8.20;2.78;;;7.70;99.90;;;;;;5000970;28;20201;-83
2024/01/22 02:05:49;;;;;;;8.20;2.70;;;7.70;99.90;;;;;;4936061;28;20035;-83
2024/01/22 02:08:15;;;;;;;7.00;2.72;;;7.70;99.90;;;;;;4932643;28;20094;-83
2024/01/22 02:10:40;;;;;;;8.77;2.67;;;7.80;99.90;;;;;;4984611;28;20266;-83
2024/01/22 02:13:09;;;;;;;7.68;2.58;;;7.90;99.90;;;;;;4965308;28;20047;-83
2024/01/22 02:15:34;;;;;;;9.15;3.17;;;7.70;99.90;;;;;;4948355;28;20082;-83
2024/01/22 02:18:01;;;;;;;7.38;2.80;;;7.80;99.90;;;;;;4966350;28;20129;-83
2024/01/22 02:20:27;;;;;;;8.32;2.78;;;7.80;99.90;;;;;;4970387;28;20045;-82
2024/01/22 02:22:53;;;;;;;7.95;2.97;;;7.70;99.90;;;;;;4983229;28;20049;-82
2024/01/22 02:25:19;;;;;;;7.88;2.70;;;7.80;99.90;;;;;;4932063;28;20035;-83
2024/01/22 02:27:44;;;;;;;6.97;2.80;;;7.80;99.90;;;;;;4935801;28;20046;-82
2024/01/22 02:30:11;;;;;;;7.00;2.45;;;7.90;99.90;;;;;;4983240;28;20399;-83
2024/01/22 02:32:36;;;;;;;9.48;3.05;;;7.90;99.90;;;;;;4937964;28;20054;-82
2024/01/22 02:35:02;;;;;;;9.82;3.22;;;7.70;99.90;;;;;;4968311;28;20447;-82
2024/01/22 02:37:28;;;;;;;8.13;2.83;;;7.80;99.90;;;;;;4952330;28;20120;-83
2024/01/22 02:39:54;;;;;;;7.30;2.97;;;7.80;99.90;;;;;;4966816;28;20039;-82
2024/01/22 02:42:20;;;;;;;6.65;2.55;;;7.80;99.90;;;;;;4949794;28;20062;-82
2024/01/22 02:44:45;;;;;;;10.40;2.97;;;8.00;99.90;;;;;;4967763;28;20567;-82
2024/01/22 02:47:12;;;;;;;7.35;2.72;;;7.90;99.90;;;;;;4984400;28;20535;-84
2024/01/22 02:49:37;;;;;;;6.72;2.47;;;7.90;99.90;;;;;;4945102;28;21403;-84
2024/01/22 02:52:04;;;;;;;7.63;2.75;;;8.00;99.90;;;;;;4978832;28;20169;-82
2024/01/22 02:54:30;;;;;;;6.93;2.72;;;8.20;99.90;;;;;;4948966;28;20046;-82
2024/01/22 02:56:55;;;;;;;7.82;2.70;;;8.20;99.90;;;;;;4979499;28;20045;-83
2024/01/22 02:59:21;;;;;;;6.25;2.42;;;8.50;99.90;;;;;;4948001;28;20074;-83
2024/01/22 03:01:47;;;;;;;7.50;2.45;;;8.30;99.90;;;;;;4950043;28;20047;-82
2024/01/22 03:04:12;;;;;;;8.32;2.63;;;8.40;99.90;;;;;;4967109;28;21503;-83
2024/01/22 03:06:41;;;;;;;6.30;2.45;;;8.40;99.90;;;;;;4944792;28;20042;-82
2024/01/22 03:09:07;;;;;;;6.90;2.50;;;8.40;99.90;;;;;;4932284;28;20433;-82
2024/01/22 03:11:32;;;;;;;6.95;2.45;;;8.40;99.90;;;;;;4951710;28;20039;-82
2024/01/22 03:13:58;;;;;;;8.10;2.90;;;8.50;99.90;;;;;;4933391;28;21006;-82
2024/01/22 03:16:24;;;;;;;6.50;2.20;;;8.40;99.90;;;;;;4956474;28;20039;-83
2024/01/22 03:18:49;;;;;;;7.30;2.60;;;8.40;99.90;;;;;;4952650;28;20039;-83
2024/01/22 03:21:15;;;;;;;7.63;2.60;;;8.40;99.90;;;;;;4934143;28;20413;-82
2024/01/22 03:23:43;;;;;;;6.65;2.58;;;8.40;99.90;;;;;;4932768;28;20039;-83
2024/01/22 03:26:17;;;;;;;6.13;2.20;;;8.30;99.90;;;;;;4980834;28;20532;-82
2024/01/22 03:28:43;;;;;;;7.93;2.42;;;8.40;99.90;;;;;;4997499;28;20057;-82
2024/01/22 03:31:18;;;;;;;6.93;2.45;;;8.40;99.90;;;;;;4981498;28;20042;-83
2024/01/22 03:33:44;;;;;;;7.43;2.95;;;8.30;99.90;;;;;;4964253;28;20049;-82
2024/01/22 03:36:09;;;;;;;7.13;2.42;;;8.40;99.90;;;;;;4982493;28;20054;-83
2024/01/22 03:38:35;;;;;;;7.03;2.60;;;8.40;99.90;;;;;;4995883;28;20042;-82
2024/01/22 03:41:01;;;;;;;6.85;2.28;;;8.50;99.90;;;;;;4966755;28;20049;-83
2024/01/22 03:43:27;;;;;;;6.93;2.50;;;8.40;99.90;;;;;;4955431;28;20082;-83
2024/01/22 03:45:52;;;;;;;7.25;2.30;;;8.30;99.90;;;;;;4918555;28;20035;-83
2024/01/22 03:48:18;;;;;;;6.85;2.30;;;8.30;99.90;;;;;;4933167;28;20485;-82
2024/01/22 03:50:44;;;;;;;7.57;2.40;;;8.30;99.90;;;;;;4966704;28;20035;-83
2024/01/22 03:53:09;;;;;;;5.93;2.28;;;8.30;99.90;;;;;;4933680;28;20042;-83
2024/01/22 03:55:35;;;;;;;7.10;2.30;;;8.40;99.90;;;;;;4932264;28;20074;-83
2024/01/22 03:58:01;;;;;;;6.50;2.38;;;8.20;99.90;;;;;;4954150;28;20129;-83
2024/01/22 04:00:26;;;;;;;6.30;2.30;;;8.40;99.90;;;;;;4944771;28;20101;-83
2024/01/22 04:02:52;;;;;;;6.60;2.08;;;8.30;99.90;;;;;;4965033;28;20069;-84
2024/01/22 04:05:18;;;;;;;6.78;2.58;;;8.30;99.90;;;;;;4932971;28;20499;-83
2024/01/22 04:07:44;;;;;;;7.55;2.35;;;8.40;99.90;;;;;;4964293;28;20042;-83
2024/01/22 04:10:09;;;;;;;5.88;2.13;;;8.50;99.90;;;;;;4932644;28;20557;-83
2024/01/22 04:12:37;;;;;;;6.60;2.13;;;8.50;99.90;;;;;;4962950;28;20070;-82
2024/01/22 04:15:03;;;;;;;7.35;2.53;;;8.40;99.90;;;;;;4946753;28;20286;-84
2024/01/22 04:17:29;;;;;;;5.78;2.40;;;8.50;99.90;;;;;;4968119;28;20051;-83
2024/01/22 04:19:55;;;;;;;6.60;2.28;;;8.40;99.90;;;;;;4945982;28;21010;-83
2024/01/22 04:22:21;;;;;;;5.97;2.13;;;8.60;99.90;;;;;;4966850;28;20050;-83
2024/01/22 04:24:46;;;;;;;4.97;1.90;;;8.40;99.90;;;;;;4933406;28;20117;-83
2024/01/22 04:27:13;;;;;;;5.45;2.17;;;8.60;99.90;;;;;;4940242;28;20054;-82
2024/01/22 04:29:38;;;;;;;5.47;2.00;;;8.60;99.90;;;;;;4965568;28;20053;-83
2024/01/22 04:32:05;;;;;;;5.35;1.90;;;8.90;99.90;;;;;;4964908;28;20039;-83
2024/01/22 04:34:31;;;;;;;7.05;2.38;;;8.50;99.90;;;;;;4934337;28;20130;-83
2024/01/22 04:36:57;;;;;;;5.53;2.20;;;8.60;99.90;;;;;;4968533;28;20716;-82
2024/01/22 04:39:24;;;;;;;5.25;2.00;;;8.70;99.90;;;;;;4982534;28;20130;-82
2024/01/22 04:41:50;;;;;;;4.20;1.80;;;8.50;99.90;;;;;;4965009;28;20503;-83
2024/01/22 04:44:16;;;;;;;3.78;1.80;;;8.70;99.90;;;;;;4965689;28;20035;-82
2024/01/22 04:46:42;;;;;;;4.97;1.90;;;8.50;99.90;;;;;;4932904;28;20491;-82
2024/01/22 04:49:09;;;;;;;5.80;2.10;;;8.70;99.90;;;;;;4933547;28;20043;-82
2024/01/22 04:51:35;;;;;;;6.05;2.00;;;8.60;99.90;;;;;;4947847;28;20063;-82
2024/01/22 04:54:01;;;;;;;4.63;1.75;;;8.70;99.90;;;;;;4961862;28;20082;-82
2024/01/22 04:56:27;;;;;;;4.53;1.80;;;8.70;99.90;;;;;;4965272;28;20093;-83
2024/01/22 04:58:52;;;;;;;3.92;1.77;;;8.70;99.90;;;;;;4950181;28;20448;-82
2024/01/22 05:01:19;;;;;;;5.10;1.88;;;8.80;99.90;;;;;;4964006;28;20633;-84
2024/01/22 05:03:44;;;;;;;4.25;1.90;;;8.80;99.90;;;;;;4995152;28;20046;-83
2024/01/22 05:06:10;;;;;;;4.50;1.88;;;8.70;99.90;;;;;;4965025;28;20035;-82
2024/01/22 05:08:36;;;;;;;5.20;2.00;;;8.80;99.90;;;;;;4980231;28;20101;-82
2024/01/22 05:11:02;;;;;;;5.03;1.77;;;8.80;99.90;;;;;;4929483;28;20043;-83
2024/01/22 05:13:27;;;;;;;3.70;1.65;;;8.70;99.90;;;;;;4965542;28;20077;-83
2024/01/22 05:15:53;;;;;;;5.15;1.88;;;8.90;99.90;;;;;;4984636;28;20044;-82
2024/01/22 05:18:19;;;;;;;4.05;1.73;;;8.70;99.90;;;;;;4966969;28;20035;-83
2024/01/22 05:20:44;;;;;;;5.07;1.80;;;8.70;99.90;;;;;;4986652;28;20046;-82
2024/01/22 05:23:10;;;;;;;5.05;1.75;;;8.80;99.90;;;;;;4935861;28;20495;-82
2024/01/22 05:25:36;;;;;;;4.68;1.75;;;8.90;99.90;;;;;;4985624;28;20121;-82
2024/01/22 05:28:01;;;;;;;4.95;1.95;;;8.90;99.90;;;;;;4982669;28;20039;-81
2024/01/22 05:30:27;;;;;;;6.03;2.00;;;9.00;99.90;;;;;;4967119;28;20117;-82
2024/01/22 05:32:53;;;;;;;4.45;1.70;;;9.10;99.90;;;;;;4981555;28;20650;-82
2024/01/22 05:35:19;;;;;;;5.50;1.80;;;9.20;99.90;;;;;;4966328;28;20049;-82
2024/01/22 05:37:44;;;;;;;4.20;1.80;;;9.10;99.90;;;;;;4985871;28;20490;-82
2024/01/22 05:40:10;;;;;;;6.07;1.80;;;9.00;99.90;;;;;;4965367;28;20178;-83
2024/01/22 05:42:37;;;;;;;4.82;1.80;;;9.30;99.90;;;;;;4967986;28;20077;-82
2024/01/22 05:45:03;;;;;;;5.10;2.00;;;9.30;99.90;;;;;;4967869;28;20035;-82
2024/01/22 05:47:29;;;;;;;5.25;1.70;;;9.20;99.90;;;;;;4948555;28;20047;-82
2024/01/22 05:49:55;;;;;;;5.30;1.80;;;9.30;99.90;;;;;;4917662;28;20039;-81
2024/01/22 05:52:20;;;;;;;4.80;1.75;;;9.30;99.90;;;;;;4954048;28;20046;-82
2024/01/22 05:54:46;;;;;;;5.22;1.77;;;9.30;99.90;;;;;;4933763;28;20054;-82
2024/01/22 05:57:12;;;;;;;4.32;1.73;;;9.30;99.90;;;;;;4999560;28;20122;-82
2024/01/22 05:59:40;;;;;;;3.90;1.70;;;9.50;99.90;;;;;;4951922;28;20039;-82
2024/01/22 06:02:06;;;;;;;4.43;1.80;;;9.30;99.90;;;;;;4967312;28;20078;-82
2024/01/22 06:04:32;;;;;;;5.97;1.80;;;9.40;99.90;;;;;;4951998;28;20097;-82
2024/01/22 06:06:57;;;;;;;4.28;1.70;;;9.60;99.90;;;;;;4969075;28;20178;-82
2024/01/22 06:09:23;;;;;;;6.43;1.67;;;9.50;99.90;;;;;;4968814;28;20122;-82
2024/01/22 06:11:49;;;;;;;5.25;1.60;;;9.40;99.90;;;;;;4967146;28;20038;-83
2024/01/22 06:14:16;;;;;;;5.18;1.70;;;9.50;99.90;;;;;;4935799;28;20051;-82
2024/01/22 06:16:41;;;;;;;4.25;1.63;;;9.40;99.90;;;;;;4958067;28;20050;-81
2024/01/22 06:19:07;;;;;;;4.97;1.70;;;9.50;99.90;;;;;;4953212;28;20039;-81
2024/01/22 06:21:33;;;;;;;5.38;1.90;;;9.50;99.90;;;;;;4968109;28;20038;-81
2024/01/22 06:23:59;;;;;;;4.68;1.63;;;9.50;99.90;;;;;;4963833;28;20050;-81
2024/01/22 06:26:24;;;;;;;5.53;1.60;;;9.70;99.90;;;;;;4985263;28;20051;-82
2024/01/22 06:28:52;;;;;;;4.15;1.50;;;9.70;99.90;;;;;;4994621;28;20070;-82
2024/01/22 06:31:19;;;;;;;4.47;1.83;;;9.60;99.90;;;;;;4979874;28;20459;-82
2024/01/22 06:33:45;;;;;;;5.82;1.58;;;9.70;99.90;;;;;;4973896;28;20055;-82
2024/01/22 06:36:10;;;;;;;5.85;1.50;;;9.80;99.90;;;;;;4932902;28;20132;-81
2024/01/22 06:38:36;;;;;;;6.60;1.70;;;9.70;99.90;;;;;;4982528;28;20517;-81
2024/01/22 06:41:02;;;;;;;4.15;1.50;;;9.80;99.90;;;;;;4934647;28;20078;-80
2024/01/22 06:43:28;;;;;;;6.55;2.10;;;9.80;99.90;;;;;;4968989;28;20535;-82
2024/01/22 06:45:53;;;;;;;5.45;1.65;;;9.90;99.90;;;;;;4935111;28;20035;-81
2024/01/22 06:48:19;;;;;;;7.05;1.65;;;9.90;99.90;;;;;;4935010;28;20121;-81
2024/01/22 06:50:45;;;;;;;6.28;1.60;;;9.90;99.90;;;;;;4982002;28;20042;-81
2024/01/22 06:53:10;;;;;;;7.63;2.05;;;9.90;99.90;;;;;;4935398;28;20046;-81
2024/01/22 06:55:36;;;;;;;5.57;2.10;;;9.90;99.90;;;;;;4933509;28;20672;-81
2024/01/22 06:58:02;;;;;;;7.78;1.80;;;9.90;99.90;;;;;;4979519;28;20052;-81
2024/01/22 07:00:30;;;;;;;7.45;1.92;;;9.80;99.90;;;;;;4997811;28;20052;-81
2024/01/22 07:02:58;;;;;;;7.60;2.20;;;10.00;99.90;;;;;;4984065;28;20042;-82
2024/01/22 07:05:26;;;;;;;8.27;2.00;;;9.80;99.90;;;;;;4951832;28;20038;-81
2024/01/22 07:07:52;;;;;;;5.95;1.85;;;9.90;99.90;;;;;;4938497;28;20038;-81
2024/01/22 07:10:17;;;;;;;7.72;2.13;;;10.00;99.90;;;;;;4962235;28;20515;-81
2024/01/22 07:12:43;;;;;;;8.13;2.20;;;9.80;99.90;;;;;;4966360;28;20519;-81
2024/01/22 07:15:15;;;;;;;9.38;2.00;;;9.80;99.90;;;;;;4982917;28;20046;-82
2024/01/22 07:17:41;;;;;;;8.27;2.08;;;9.80;99.90;;;;;;4982263;28;20038;-81
2024/01/22 07:20:14;;;;;;;7.88;1.90;;;9.80;99.90;;;;;;4967080;28;20046;-81
2024/01/22 07:22:43;;;;;;;;;;;9.90;99.90;;;;;;4963964;28;20046;-81
2024/01/22 07:25:10;;;;;;;9.02;1.90;;;9.90;99.90;;;;;;4967027;28;19922;-81
2024/01/22 07:27:39;;;;;;;10.60;2.55;;;9.80;99.90;;;;;;4996775;28;20042;-81
2024/01/22 07:30:11;;;;;;;11.35;2.78;;;9.80;99.90;;;;;;4982358;28;20034;-81
2024/01/22 07:32:38;;;;;;;13.53;2.77;;;9.90;99.90;;;;;;4951305;28;20125;-82
2024/01/22 07:35:09;;;;;;;10.73;2.80;;;9.90;99.90;;;;;;4944786;28;20042;-81
2024/01/22 07:37:38;;;;;;;12.85;2.80;;;9.90;99.90;;;;;;4950075;28;20047;-82
2024/01/22 07:40:09;;;;;;;16.58;3.38;;;9.90;99.90;;;;;;4996939;28;20043;-82
2024/01/22 07:42:35;;;;;;;19.88;4.03;;;9.90;99.90;;;;;;4949265;28;20508;-82
2024/01/22 07:45:03;;;;;;;14.18;3.60;;;9.70;99.90;;;;;;4934186;28;20045;-83
2024/01/22 07:47:29;;;;;;;16.85;3.72;;;9.80;99.90;;;;;;4978338;28;20199;-82
2024/01/22 07:49:55;;;;;;;13.38;4.18;;;9.90;99.90;;;;;;4966849;28;20240;-82
2024/01/22 07:52:22;;;;;;;13.18;3.72;;;9.80;99.90;;;;;;4982194;28;20046;-82
2024/01/22 07:54:48;;;;;;;14.52;3.35;;;9.90;99.90;;;;;;4968478;28;20050;-82
2024/01/22 07:57:14;;;;;;;14.60;3.50;;;9.90;99.90;;;;;;4958833;28;20039;-82
2024/01/22 07:59:40;;;;;;;13.10;3.83;;;10.00;99.90;;;;;;4982780;28;20273;-82
2024/01/22 08:02:07;;;;;;;18.05;4.22;;;10.00;99.90;;;;;;4946166;28;20077;-82
2024/01/22 08:04:33;;;;;;;17.92;3.70;;;9.90;99.90;;;;;;4996483;28;20034;-82
2024/01/22 08:07:00;;;;;;;15.20;3.60;;;10.00;99.90;;;;;;4947531;28;20389;-82
2024/01/22 08:09:27;;;;;;;15.15;3.38;;;9.80;99.90;;;;;;4947055;28;20039;-82
2024/01/22 08:11:52;;;;;;;17.48;4.38;;;9.80;99.90;;;;;;4951510;28;20182;-82
2024/01/22 08:14:18;;;;;;;11.98;3.03;;;9.80;99.90;;;;;;4964993;28;20148;-82
2024/01/22 08:16:45;;;;;;;16.05;4.15;;;9.80;99.90;;;;;;4934605;28;20042;-82
2024/01/22 08:19:12;;;;;;;15.77;3.83;;;9.80;99.90;;;;;;4953089;28;20094;-81
2024/01/22 08:21:37;;;;;;;12.52;2.95;;;9.60;99.90;;;;;;4982565;28;20190;-81
2024/01/22 08:24:04;;;;;;;19.20;4.25;;;9.60;99.90;;;;;;4964741;28;20046;-82
2024/01/22 08:26:30;;;;;;;18.67;4.13;;;9.70;99.90;;;;;;4936100;28;20130;-82
2024/01/22 08:28:56;;;;;;;18.98;4.28;;;9.80;99.90;;;;;;4935430;28;20106;-82
2024/01/22 08:31:22;;;;;;;15.40;4.18;;;9.80;99.90;;;;;;4933520;28;20278;-82
2024/01/22 08:33:49;;;;;;;16.77;3.92;;;9.60;99.90;;;;;;4949581;28;20054;-82
2024/01/22 08:36:15;;;;;;;14.98;3.28;;;9.70;99.90;;;;;;4942424;28;20066;-82
2024/01/22 08:38:41;;;;;;;16.38;3.90;;;9.70;99.90;;;;;;4972802;28;20620;-82
2024/01/22 08:41:08;;;;;;;14.38;3.80;;;9.50;99.90;;;;;;4950489;28;20051;-82
2024/01/22 08:43:35;;;;;;;16.02;3.60;;;9.50;99.90;;;;;;4980110;28;20053;-82
2024/01/22 08:46:01;;;;;;;14.25;4.20;;;9.40;99.90;;;;;;4981062;28;20035;-82
2024/01/22 08:48:27;;;;;;;15.45;3.25;;;9.50;99.90;;;;;;4963194;28;20583;-82
2024/01/22 08:50:52;;;;;;;13.45;3.53;;;9.30;99.90;;;;;;4980992;28;20094;-82
2024/01/22 08:53:18;;;;;;;13.52;3.13;;;9.10;99.90;;;;;;4980923;28;20512;-82
2024/01/22 08:55:44;;;;;;;13.57;3.78;;;9.20;99.90;;;;;;4999285;28;20049;-82
2024/01/22 08:58:10;;;;;;;16.42;3.40;;;9.30;99.90;;;;;;4948633;28;20222;-82
2024/01/22 09:00:36;;;;;;;15.35;3.40;;;9.10;99.90;;;;;;4997555;28;20213;-82
2024/01/22 09:03:02;;;;;;;19.15;4.68;;;9.10;99.90;;;;;;4931334;28;20043;-82
2024/01/22 09:05:28;;;;;;;18.30;4.53;;;9.20;99.90;;;;;;4964521;28;20404;-82
2024/01/22 09:07:53;;;;;;;17.58;4.05;;;9.10;99.90;;;;;;4966189;28;20034;-82
2024/01/22 09:10:19;;;;;;;20.40;4.40;;;9.10;99.90;;;;;;4915639;28;20906;-82
2024/01/22 09:12:48;;;;;;;16.65;4.07;;;9.10;99.90;;;;;;4981213;28;20051;-82
2024/01/22 09:15:20;;;;;;;20.58;4.78;;;9.10;99.90;;;;;;4980788;28;20401;-82
2024/01/22 09:17:46;;;;;;;25.48;6.47;;;8.90;99.90;;;;;;4951001;28;20039;-81
2024/01/22 09:20:12;;;;;;;23.13;5.07;;;9.00;99.90;;;;;;4963968;28;20073;-82
2024/01/22 09:22:38;;;;;;;21.10;5.47;;;9.10;99.90;;;;;;4945593;28;20049;-82
2024/01/22 09:25:07;;;;;;;23.30;5.75;;;9.10;99.90;;;;;;4980380;28;20549;-82
2024/01/22 09:27:33;;;;;;;26.30;6.18;;;9.10;99.90;;;;;;4991783;28;20054;-81
2024/01/22 09:29:59;;;;;;;28.33;5.65;;;9.00;99.90;;;;;;4965830;28;20038;-82
2024/01/22 09:32:25;;;;;;;24.65;5.85;;;8.90;99.90;;;;;;4980498;28;21299;-82
2024/01/22 09:34:51;;;;;;;28.92;6.40;;;9.00;99.90;;;;;;4982028;28;20484;-82
2024/01/22 09:37:17;;;;;;;25.05;6.00;;;8.90;99.90;;;;;;4983892;28;20045;-82
2024/01/22 09:39:44;;;;;;;25.10;6.20;;;9.10;99.90;;;;;;4978496;28;20581;-82
2024/01/22 09:42:12;;;;;;;23.70;5.85;;;9.20;99.90;;;;;;4973735;28;20157;-81
2024/01/22 09:44:40;;;;;;;27.67;5.78;;;9.30;99.90;;;;;;4949415;28;20511;-82
2024/01/22 09:47:08;;;;;;;23.70;6.43;;;9.20;99.90;;;;;;4998561;28;20039;-82
2024/01/22 09:49:35;;;;;;;30.67;5.82;;;9.30;99.90;;;;;;4978660;28;20046;-82
2024/01/22 09:52:02;;;;;;;30.55;7.13;;;9.30;99.90;;;;;;4981045;28;20118;-81
2024/01/22 09:54:29;;;;;;;27.20;6.78;;;9.20;99.90;;;;;;4951337;28;20392;-82
2024/01/22 09:56:57;;;;;;;28.08;6.25;;;9.20;99.90;;;;;;4954738;28;20041;-82
2024/01/22 09:59:25;;;;;;;25.10;5.93;;;9.40;99.90;;;;;;4951779;28;20484;-81
2024/01/22 10:01:53;;;;;;;21.10;5.10;;;9.40;99.90;;;;;;4973655;28;20038;-81
2024/01/22 10:04:19;;;;;;;28.63;5.30;;;9.50;99.90;;;;;;4955139;28;20584;-82
2024/01/22 10:06:48;;;;;;;22.05;4.80;;;9.40;99.90;;;;;;4962342;28;20045;-82
2024/01/22 10:09:17;;;;;;;22.83;5.93;;;9.40;99.90;;;;;;4950958;28;20035;-82
2024/01/22 10:11:44;;;;;;;26.70;5.20;;;9.30;99.90;;;;;;4985442;28;20640;-82
2024/01/22 10:14:10;;;;;;;22.67;5.53;;;9.40;99.90;;;;;;4933713;28;20126;-82
2024/01/22 10:16:36;;;;;;;28.52;6.25;;;9.40;99.90;;;;;;4984517;28;20039;-81
2024/01/22 10:19:08;;;;;;;23.60;5.20;;;9.40;99.90;;;;;;4956896;28;20069;-81
2024/01/22 10:21:35;;;;;;;28.38;5.78;;;9.50;99.90;;;;;;4963572;28;20038;-82
2024/01/22 10:24:06;;;;;;;26.38;5.32;;;9.40;99.90;;;;;;4951175;28;20049;-81
2024/01/22 10:26:33;;;;;;;20.40;5.47;;;9.40;99.90;;;;;;4981997;28;20148;-81
2024/01/22 10:29:18;;;;;;;22.95;4.78;;;9.60;99.90;;;;;;4968300;28;20049;-82
2024/01/22 10:31:54;;;;;;;17.75;4.05;;;9.40;99.90;;;;;;4952480;28;20568;-81
2024/01/22 10:34:21;;;;;;;20.83;4.88;;;9.40;99.90;;;;;;4979035;28;20113;-81
2024/01/22 10:37:12;;;;;;;22.27;5.07;;;9.60;99.90;;;;;;4974879;28;20171;-81
2024/01/22 10:39:42;;;;;;;18.10;4.93;;;9.60;99.90;;;;;;4988079;28;20047;-81
2024/01/22 10:42:12;;;;;;;19.40;5.03;;;9.50;99.90;;;;;;5004235;28;20050;-81
2024/01/22 10:44:40;;;;;;;19.73;4.75;;;9.70;99.90;;;;;;4955975;28;20042;-81
2024/01/22 10:47:06;;;;;;;18.75;4.07;;;9.70;99.90;;;;;;4970438;28;20066;-81
2024/01/22 10:49:33;;;;;;;16.58;4.10;;;9.50;99.90;;;;;;4936379;28;20523;-82
2024/01/22 10:52:00;;;;;;;19.65;4.30;;;9.50;99.90;;;;;;4984294;28;20074;-82
2024/01/22 10:54:27;;;;;;;14.15;4.35;;;9.60;99.90;;;;;;4935515;28;20051;-81
2024/01/22 10:57:08;;;;;;;18.00;4.22;;;9.70;99.90;;;;;;4981614;28;20058;-81
2024/01/22 10:59:36;;;;;;;19.90;4.72;;;9.70;99.90;;;;;;4982479;28;20496;-81
2024/01/22 11:02:06;;;;;;;16.38;3.85;;;9.70;99.90;;;;;;4948312;28;20049;-81
2024/01/22 11:04:46;;;;;;;18.58;4.07;;;9.70;99.90;;;;;;5001124;28;20695;-81
2024/01/22 11:07:12;;;;;;;16.35;4.15;;;9.70;99.90;;;;;;4966942;28;20037;-81
2024/01/22 11:09:39;;;;;;;17.52;3.67;;;9.80;99.90;;;;;;4980025;28;20046;-81
2024/01/22 11:12:12;;;;;;;19.05;4.68;;;9.80;99.90;;;;;;4934193;28;20053;-81
2024/01/22 11:14:40;;;;;;;18.42;4.43;;;9.80;99.90;;;;;;4963651;28;20046;-81
2024/01/22 11:17:06;;;;;;;19.27;4.00;;;10.00;99.90;;;;;;4952103;28;20092;-81
2024/01/22 11:19:33;;;;;;;15.70;3.90;;;9.90;99.90;;;;;;5012189;28;20140;-81
2024/01/22 11:22:02;;;;;;;15.20;3.70;;;9.90;99.90;;;;;;4971603;28;20516;-81
2024/01/22 11:24:28;;;;;;;19.45;5.10;;;9.90;99.90;;;;;;4983406;28;20051;-81
2024/01/22 11:26:57;;;;;;;14.35;3.53;;;9.90;99.90;;;;;;4933091;28;20054;-81
2024/01/22 11:29:27;;;;;;;16.00;4.38;;;9.90;99.90;;;;;;4966654;28;20102;-81
2024/01/22 11:31:54;;;;;;;17.73;3.83;;;9.90;99.90;;;;;;4948155;28;20066;-81
2024/01/22 11:34:38;;;;;;;17.65;3.72;;;9.90;99.90;;;;;;4999700;28;20456;-81
2024/01/22 11:37:04;;;;;;;14.25;3.50;;;9.90;99.90;;;;;;4982188;28;20061;-81
2024/01/22 11:39:34;;;;;;;14.93;3.45;;;10.00;99.90;;;;;;4980752;28;20496;-82
2024/01/22 11:42:16;;;;;;;16.50;3.97;;;10.00;99.90;;;;;;4978472;28;20097;-81
2024/01/22 11:44:42;;;;;;;17.27;4.03;;;10.00;99.90;;;;;;4977131;28;20488;-81
2024/01/22 11:47:10;;;;;;;15.27;3.70;;;10.00;99.90;;;;;;4980011;28;20551;-81
2024/01/22 11:49:36;;;;;;;16.85;4.13;;;10.10;99.90;;;;;;5000274;28;20063;-81
2024/01/22 11:52:22;;;;;;;14.18;3.38;;;10.00;99.90;;;;;;4945845;28;20034;-81
2024/01/22 11:54:56;;;;;;;16.33;3.78;;;10.10;99.90;;;;;;4974797;28;20043;-81
2024/01/22 11:57:23;;;;;;;13.55;3.88;;;10.10;99.90;;;;;;4940846;28;20051;-81
2024/01/22 12:00:12;;;;;;;14.63;3.67;;;10.20;99.90;;;;;;4972071;28;20060;-81
2024/01/22 12:02:39;;;;;;;15.30;3.33;;;10.20;99.90;;;;;;4976011;28;20035;-81
2024/01/22 12:05:18;;;;;;;17.83;3.92;;;10.20;99.90;;;;;;4995692;28;20078;-81
2024/01/22 12:07:45;;;;;;;16.77;3.80;;;10.20;99.90;;;;;;4978656;28;20045;-81
2024/01/22 12:10:22;;;;;;;14.73;3.97;;;10.30;99.90;;;;;;4959826;28;20125;-81
2024/01/22 12:12:52;;;;;;;11.80;3.28;;;10.20;99.90;;;;;;4961919;28;20042;-81
2024/01/22 12:15:19;;;;;;;17.38;3.80;;;10.20;99.90;;;;;;4942710;28;20043;-81
2024/01/22 12:17:44;;;;;;;14.68;3.85;;;10.20;99.90;;;;;;4980623;28;20049;-82
2024/01/22 12:20:11;;;;;;;15.32;3.55;;;10.20;99.90;;;;;;4963456;28;20420;-81
2024/01/22 12:22:37;;;;;;;14.80;3.75;;;10.10;99.90;;;;;;4962988;28;20121;-81
2024/01/22 12:25:07;;;;;;;16.38;4.13;;;10.10;99.90;;;;;;4934369;28;20557;-81
2024/01/22 12:27:33;;;;;;;18.15;3.55;;;10.00;99.90;;;;;;4978473;28;20112;-81
2024/01/22 12:30:14;;;;;;;15.77;3.45;;;10.00;99.90;;;;;;4962287;28;20389;-81
2024/01/22 12:32:49;;;;;;;16.65;3.83;;;10.00;99.90;;;;;;4980102;28;20073;-82
2024/01/22 12:35:15;;;;;;;16.45;3.67;;;10.00;99.90;;;;;;4962052;28;20285;-81
2024/01/22 12:37:40;;;;;;;13.48;3.40;;;10.00;99.90;;;;;;4997081;28;20252;-82
2024/01/22 12:40:14;;;;;;;15.75;3.28;;;10.00;99.90;;;;;;4947074;28;20038;-81
2024/01/22 12:42:50;;;;;;;12.40;3.13;;;10.00;99.90;;;;;;4964451;28;20385;-81
2024/01/22 12:45:20;;;;;;;11.35;3.17;;;10.00;99.90;;;;;;4980657;28;20039;-81
2024/01/22 12:47:47;;;;;;;16.67;3.45;;;10.00;99.90;;;;;;4980444;28;20038;-82
2024/01/22 12:50:17;;;;;;;16.08;3.88;;;9.90;99.90;;;;;;4948939;28;20392;-81
2024/01/22 12:52:44;;;;;;;17.13;3.35;;;9.90;99.90;;;;;;4981417;28;20039;-81